Time;durP1;ratioP1;P1;durP2;ratioP2;P2;SDS_P1;SDS_P2;PMS_P1;PMS_P2;Temp;Humidity;BMP_temperature;BMP_pressure;BME280_temperature;BME280_humidity;BME280_pressure;Samples;Min_cycle;Max_cycle;Signal;HPM_P1;HPM_P2
2024/03/22 00:07:23;;;;;;;32.6;20;;;;;;;9.37;64.04;98906.666666667;;;;
2024/03/22 00:18:23;;;;;;;39.7;22.4;;;;;;;9.3;64.79;98910;;;;
2024/03/22 00:28:23;;;;;;;39.7;22.4;;;;;;;9.2;66.73;98910;;;;
2024/03/22 00:39:23;;;;;;;39.7;22.4;;;;;;;9.16;67.14;98905;;;;
2024/03/22 00:50:23;;;;;;;40.8;25.1;;;;;;;9.19;67.36;98901.666666667;;;;
2024/03/22 01:00:23;;;;;;;40.8;25.1;;;;;;;9.23;68.26;98898.333333333;;;;
2024/03/22 01:11:24;;;;;;;42.7;26;;;;;;;9.38;69.48;98893.333333333;;;;
2024/03/22 01:21:25;;;;;;;42.7;26;;;;;;;9.44;69.13;98891.666666667;;;;
2024/03/22 01:31:23;;;;;;;42.7;26;;;;;;;9.47;70.02;98888.333333333;;;;
2024/03/22 01:41:24;;;;;;;45.1;26.9;;;;;;;9.5;70.75;98883.333333333;;;;
2024/03/22 01:52:24;;;;;;;45.1;26.9;;;;;;;9.61;71.17;98880;;;;
2024/03/22 02:03:23;;;;;;;45.1;26.9;;;;;;;9.64;71.9;98886.666666667;;;;
2024/03/22 02:13:24;;;;;;;36.7;25;;;;;;;9.74;72.95;98886.666666667;;;;
2024/03/22 02:24:24;;;;;;;36.7;25;;;;;;;9.75;73.1;98898.333333333;;;;
2024/03/22 02:34:24;;;;;;;36.7;25;;;;;;;9.84;74.12;98895;;;;
2024/03/22 02:45:23;;;;;;;42;25.6;;;;;;;9.91;74.97;98896.666666667;;;;
2024/03/22 02:55:24;;;;;;;42;25.6;;;;;;;9.96;75.35;98900;;;;
2024/03/22 03:06:24;;;;;;;42;25.6;;;;;;;10.04;75.43;98898.333333333;;;;
2024/03/22 03:17:23;;;;;;;43.8;27.8;;;;;;;10.08;75.83;98896.666666667;;;;
2024/03/22 03:28:25;;;;;;;43.8;27.8;;;;;;;10.15;76.44;98890;;;;
2024/03/22 03:38:24;;;;;;;43.8;27.8;;;;;;;10.15;76.77;98885;;;;
2024/03/22 03:49:24;;;;;;;44.4;27.2;;;;;;;10.06;78.2;98881.666666667;;;;
2024/03/22 04:00:23;;;;;;;44.4;27.2;;;;;;;10.12;79.19;98878.333333333;;;;
2024/03/22 04:10:24;;;;;;;41;28.1;;;;;;;10.14;79.58;98875;;;;
2024/03/22 04:21:23;;;;;;;41;28.1;;;;;;;10.14;80.11;98876.666666667;;;;
2024/03/22 04:32:23;;;;;;;41;28.1;;;;;;;10.09;81.65;98890;;;;
2024/03/22 04:42:24;;;;;;;38.1;24.4;;;;;;;10.1;82.24;98891.666666667;;;;
2024/03/22 04:52:24;;;;;;;38.1;24.4;;;;;;;10.16;82.21;98890;;;;
2024/03/22 05:02:24;;;;;;;38.1;24.4;;;;;;;10.23;81.84;98890;;;;
2024/03/22 05:13:24;;;;;;;29.4;20.4;;;;;;;10.21;82.22;98895;;;;
2024/03/22 05:23:23;;;;;;;29.4;20.4;;;;;;;10.22;82.86;98896.666666667;;;;
2024/03/22 05:33:24;;;;;;;29.4;20.4;;;;;;;10.21;83.28;98911.666666667;;;;
2024/03/22 05:43:24;;;;;;;27.8;19.5;;;;;;;10.38;82.92;98910;;;;
2024/03/22 05:53:24;;;;;;;27.8;19.5;;;;;;;10.48;82.64;98908.333333333;;;;
2024/03/22 06:04:23;;;;;;;27.8;19.5;;;;;;;10.63;81.97;98910;;;;
2024/03/22 06:15:23;;;;;;;29;17.3;;;;;;;10.75;81.83;98910;;;;
2024/03/22 06:25:24;;;;;;;29;17.3;;;;;;;10.97;81.24;98901.666666667;;;;
2024/03/22 06:36:23;;;;;;;29;17.3;;;;;;;10.94;80.71;98908.333333333;;;;
2024/03/22 06:46:24;;;;;;;29.4;19.1;;;;;;;11.25;79.84;98910;;;;
2024/03/22 06:56:24;;;;;;;29.4;19.1;;;;;;;11.41;78.99;98911.666666667;;;;
2024/03/22 07:07:23;;;;;;;29.4;19.1;;;;;;;11.39;78.85;98906.666666667;;;;
2024/03/22 07:17:24;;;;;;;24.5;17.5;;;;;;;11.36;78.09;98892.5;;;;
2024/03/22 07:28:24;;;;;;;24.5;17.5;;;;;;;10.99;79.16;98900;;;;
2024/03/22 07:39:24;;;;;;;24.5;17.5;;;;;;;11.03;79.26;98895;;;;
2024/03/22 07:50:24;;;;;;;28.2;17.5;;;;;;;10.73;82.03;98892.5;;;;
2024/03/22 08:00:25;;;;;;;28.2;17.5;;;;;;;10.81;82.27;98878;;;;
2024/03/22 08:10:24;;;;;;;25.9;19.5;;;;;;;10.83;81.77;98870;;;;
2024/03/22 08:20:24;;;;;;;25.9;19.5;;;;;;;10.88;80.95;98862;;;;
2024/03/22 08:31:25;;;;;;;25.9;19.5;;;;;;;10.91;81.04;98852;;;;
2024/03/22 08:41:24;;;;;;;24.1;17;;;;;;;10.92;80.37;98854;;;;
2024/03/22 08:52:24;;;;;;;24.1;17;;;;;;;11.23;77.5;98860;;;;
2024/03/22 09:03:24;;;;;;;24.1;17;;;;;;;11.29;75.78;98858;;;;
2024/03/22 09:13:24;;;;;;;20.6;15.2;;;;;;;11.5;73.92;98858;;;;
2024/03/22 09:24:24;;;;;;;20.6;15.2;;;;;;;11.95;72.2;98844;;;;
2024/03/22 09:35:24;;;;;;;20.6;15.2;;;;;;;12.44;71.38;98854;;;;
2024/03/22 09:45:24;;;;;;;20.9;15;;;;;;;12.11;70.23;98848;;;;
2024/03/22 09:55:24;;;;;;;20.9;15;;;;;;;11.6;71;98864;;;;
2024/03/22 10:06:24;;;;;;;20.9;15;;;;;;;11.38;72.36;98856;;;;
2024/03/22 10:16:24;;;;;;;18.8;13.1;;;;;;;11.24;71.93;98850;;;;
2024/03/22 10:27:24;;;;;;;18.8;13.1;;;;;;;11.45;73.08;98838;;;;
2024/03/22 10:38:24;;;;;;;18.8;13.1;;;;;;;11.59;71.61;98840;;;;
2024/03/22 10:49:24;;;;;;;19.5;13.2;;;;;;;11.66;71.51;98822;;;;
2024/03/22 11:00:24;;;;;;;19.5;13.2;;;;;;;12.38;69.94;98814;;;;
2024/03/22 11:10:25;;;;;;;20.5;15;;;;;;;12.66;69.18;98808;;;;
2024/03/22 11:20:24;;;;;;;20.5;15;;;;;;;13.36;67.8;98786;;;;
2024/03/22 11:31:27;;;;;;;20.5;15;;;;;;;13.42;67.21;98776;;;;
2024/03/22 11:41:24;;;;;;;20.5;16.2;;;;;;;13.76;66.83;98760;;;;
2024/03/22 11:52:24;;;;;;;20.5;16.2;;;;;;;14.22;64.47;98744;;;;
2024/03/22 12:03:24;;;;;;;20.5;16.2;;;;;;;14.13;64.01;98724;;;;
2024/03/22 12:14:24;;;;;;;18;14;;;;;;;13.59;65.59;98702;;;;
2024/03/22 12:25:24;;;;;;;18;14;;;;;;;14.12;64.13;98700;;;;
2024/03/22 12:36:25;;;;;;;18;14;;;;;;;13.78;65.53;98678;;;;
2024/03/22 12:47:24;;;;;;;21.3;15.4;;;;;;;13.27;66.19;98672;;;;
2024/03/22 12:58:24;;;;;;;21.3;15.4;;;;;;;13.04;67.46;98666;;;;
2024/03/22 13:08:24;;;;;;;21.3;15.4;;;;;;;13.14;66.62;98672;;;;
2024/03/22 13:19:24;;;;;;;20.9;17.5;;;;;;;13.34;66.02;98664;;;;
2024/03/22 13:30:24;;;;;;;20.9;17.5;;;;;;;13.51;65.26;98644;;;;
2024/03/22 13:40:24;;;;;;;19.2;16.3;;;;;;;13.13;66.76;98642;;;;
2024/03/22 13:50:24;;;;;;;19.2;16.3;;;;;;;13.11;66.71;98632;;;;
2024/03/22 14:00:25;;;;;;;19.2;16.3;;;;;;;13.16;66.26;98616;;;;
2024/03/22 14:11:24;;;;;;;20.8;16.4;;;;;;;12.91;66.62;98612;;;;
2024/03/22 14:21:24;;;;;;;20.8;16.4;;;;;;;12.84;67;98608;;;;
2024/03/22 14:32:24;;;;;;;20.8;16.4;;;;;;;12.62;66.81;98602;;;;
2024/03/22 14:42:24;;;;;;;19.2;15.2;;;;;;;12.47;66.95;98584;;;;
2024/03/22 14:53:24;;;;;;;19.2;15.2;;;;;;;12.44;67.29;98578;;;;
2024/03/22 15:04:24;;;;;;;19.2;15.2;;;;;;;12.38;67.95;98558;;;;
2024/03/22 15:14:24;;;;;;;20.7;15.8;;;;;;;12.21;68.19;98560;;;;
2024/03/22 15:25:24;;;;;;;20.7;15.8;;;;;;;12.44;68.96;98536;;;;
2024/03/22 15:35:25;;;;;;;20.7;15.8;;;;;;;12.16;68.8;98540;;;;
2024/03/22 15:46:24;;;;;;;22;13.1;;;;;;;12.11;68.66;98534;;;;
2024/03/22 15:57:24;;;;;;;22;13.1;;;;;;;12.29;69.28;98536;;;;
2024/03/22 16:07:24;;;;;;;22;13.1;;;;;;;12.32;69.37;98534;;;;
2024/03/22 16:18:24;;;;;;;18.6;12;;;;;;;12.28;69.12;98524;;;;
2024/03/22 16:28:26;;;;;;;18.6;12;;;;;;;12.12;69.14;98524;;;;
2024/03/22 16:38:24;;;;;;;18.6;12;;;;;;;11.97;69.51;98522;;;;
2024/03/22 16:49:24;;;;;;;21;14;;;;;;;11.82;69.84;98524;;;;
2024/03/22 16:59:24;;;;;;;21;14;;;;;;;11.72;69.92;98524;;;;
2024/03/22 17:10:24;;;;;;;25.9;16.2;;;;;;;11.49;70.6;98518;;;;
2024/03/22 17:20:24;;;;;;;25.9;16.2;;;;;;;11.31;71.62;98514;;;;
2024/03/22 17:31:24;;;;;;;25.9;16.2;;;;;;;11.14;72.71;98502;;;;
2024/03/22 17:41:24;;;;;;;21.1;13.2;;;;;;;11.07;73.08;98494;;;;
2024/03/22 17:51:24;;;;;;;21.1;13.2;;;;;;;11.01;74.05;98482;;;;
2024/03/22 18:01:24;;;;;;;21.1;13.2;;;;;;;10.86;75.01;98482;;;;
2024/03/22 18:11:24;;;;;;;44.7;29.9;;;;;;;10.69;77.22;98474;;;;
2024/03/22 18:21:24;;;;;;;44.7;29.9;;;;;;;10.67;77.33;98456;;;;
2024/03/22 18:32:24;;;;;;;44.7;29.9;;;;;;;10.57;77.82;98444;;;;
2024/03/22 18:43:24;;;;;;;141.6;94.4;;;;;;;10.57;78.15;98445;;;;
2024/03/22 18:54:24;;;;;;;141.6;94.4;;;;;;;10.56;77.7;98438.333333333;;;;
2024/03/22 19:04:24;;;;;;;141.6;94.4;;;;;;;10.58;77.59;98418.333333333;;;;
2024/03/22 19:14:25;;;;;;;61.6;37.4;;;;;;;10.55;77.71;98392;;;;
2024/03/22 19:25:24;;;;;;;61.6;37.4;;;;;;;10.56;77.8;98390;;;;
2024/03/22 19:35:24;;;;;;;61.6;37.4;;;;;;;10.67;77.45;98383.333333333;;;;
2024/03/22 19:46:24;;;;;;;36.4;24.2;;;;;;;10.72;77;98378.333333333;;;;
2024/03/22 19:57:24;;;;;;;36.4;24.2;;;;;;;10.75;77.36;98368.333333333;;;;
2024/03/22 20:07:24;;;;;;;36.4;24.2;;;;;;;10.75;77.2;98365;;;;
2024/03/22 20:17:24;;;;;;;33;22.3;;;;;;;10.78;76.64;98346.666666667;;;;
2024/03/22 20:28:24;;;;;;;33;22.3;;;;;;;10.85;75.38;98338.333333333;;;;
2024/03/22 20:38:24;;;;;;;;;;;;;;;;;98326.666666667;;;;
2024/03/22 20:48:24;;;;;;;;;;;;;;;;;98325;;;;
2024/03/22 20:59:24;;;;;;;;;;;;;;;;;98320;;;;
2024/03/22 21:10:25;;;;;;;22.8;13.3;;;;;;;10.9;72.26;98311.666666667;;;;
2024/03/22 21:20:24;;;;;;;22.8;13.3;;;;;;;11.03;71.2;98305;;;;
2024/03/22 21:30:24;;;;;;;22.8;13.3;;;;;;;11.06;70.01;98288.333333333;;;;
2024/03/22 21:40:24;;;;;;;17.6;11.4;;;;;;;11.15;68.69;98285;;;;
2024/03/22 21:51:26;;;;;;;17.6;11.4;;;;;;;11.25;67.91;98285;;;;
2024/03/22 22:02:24;;;;;;;17.6;11.4;;;;;;;11.28;66.72;98271.666666667;;;;
2024/03/22 22:12:24;;;;;;;15.4;9.4;;;;;;;11.32;66.7;98255;;;;
2024/03/22 22:23:24;;;;;;;15.4;9.4;;;;;;;11.35;66.52;98238.333333333;;;;
2024/03/22 22:33:24;;;;;;;15.4;9.4;;;;;;;11.32;66.11;98220;;;;
2024/03/22 22:44:24;;;;;;;14.6;9.5;;;;;;;11.35;66.27;98218.333333333;;;;
2024/03/22 22:54:24;;;;;;;14.6;9.5;;;;;;;11.4;65.86;98218.333333333;;;;
2024/03/22 23:04:24;;;;;;;14.6;9.5;;;;;;;11.41;65.96;98215;;;;
2024/03/22 23:15:24;;;;;;;14.9;8.5;;;;;;;11.38;65.67;98196.666666667;;;;
2024/03/22 23:26:24;;;;;;;14.9;8.5;;;;;;;11.31;65.48;98183.333333333;;;;
2024/03/22 23:36:24;;;;;;;14.9;8.5;;;;;;;11.32;65.12;98170;;;;
2024/03/22 23:46:24;;;;;;;13.6;8.8;;;;;;;11.31;65.71;98156.666666667;;;;
2024/03/22 23:57:24;;;;;;;13.6;8.8;;;;;;;11.3;64.4;98145;;;;
